Time;durP1;ratioP1;P1;durP2;ratioP2;P2;SDS_P1;SDS_P2;PMS_P1;PMS_P2;Temp;Humidity;BMP_temperature;BMP_pressure;BME280_temperature;BME280_humidity;BME280_pressure;Samples;Min_cycle;Max_cycle;Signal;HPM_P1;HPM_P2
2023/03/02 00:00:15;;;;;;;43.90;22.80;;;;;;;1.82;100.00;102666.88;4968086;28;20721;-63
2023/03/02 00:02:41;;;;;;;47.38;23.25;;;;;;;1.86;100.00;102670.44;4968404;28;20487;-62
2023/03/02 00:05:08;;;;;;;42.47;24.35;;;;;;;1.80;100.00;102665.06;4968415;28;20076;-63
2023/03/02 00:07:34;;;;;;;45.85;26.33;;;;;;;1.80;100.00;102672.88;4951717;28;20035;-62
2023/03/02 00:10:00;;;;;;;46.60;25.63;;;;;;;1.92;100.00;102665.44;4968922;28;20189;-62
2023/03/02 00:12:26;;;;;;;48.20;27.38;;;;;;;1.86;100.00;102660.03;4950705;28;20073;-63
2023/03/02 00:14:52;;;;;;;49.83;26.83;;;;;;;1.84;100.00;102673.00;4968483;28;20081;-63
2023/03/02 00:17:17;;;;;;;55.90;28.17;;;;;;;1.76;100.00;102653.69;4968276;28;20153;-63
2023/03/02 00:19:43;;;;;;;53.53;27.42;;;;;;;1.68;100.00;102653.41;4951288;28;20039;-63
2023/03/02 00:22:09;;;;;;;57.97;26.92;;;;;;;1.80;100.00;102654.66;4968361;28;20069;-63
2023/03/02 00:24:34;;;;;;;55.22;29.38;;;;;;;1.84;100.00;102647.00;4968884;28;20632;-60
2023/03/02 00:26:59;;;;;;;64.15;31.67;;;;;;;1.75;100.00;102642.38;4967827;28;20361;-62
2023/03/02 00:29:25;;;;;;;57.40;29.77;;;;;;;1.82;100.00;102652.97;4968068;28;20371;-63
2023/03/02 00:31:50;;;;;;;58.75;31.20;;;;;;;1.85;100.00;102643.56;4967992;28;20475;-63
2023/03/02 00:34:15;;;;;;;61.70;30.35;;;;;;;1.79;100.00;102637.28;5027605;28;20033;-63
2023/03/02 00:36:41;;;;;;;70.78;32.63;;;;;;;1.74;100.00;102644.94;5069647;28;20020;-62
2023/03/02 00:39:06;;;;;;;63.50;33.28;;;;;;;1.75;100.00;102642.38;5069916;28;20032;-61
2023/03/02 00:41:31;;;;;;;65.18;33.55;;;;;;;1.82;100.00;102642.59;5068963;28;20406;-61
2023/03/02 00:43:57;;;;;;;67.32;33.45;;;;;;;1.80;100.00;102636.47;5069650;28;20091;-61
2023/03/02 00:46:23;;;;;;;73.15;35.33;;;;;;;1.83;100.00;102641.75;5069181;28;20028;-61
2023/03/02 00:48:49;;;;;;;64.80;32.75;;;;;;;1.84;100.00;102638.31;5069119;28;20033;-63
2023/03/02 00:51:15;;;;;;;73.18;33.40;;;;;;;1.79;100.00;102632.09;5069410;28;20103;-60
2023/03/02 00:53:40;;;;;;;66.47;34.35;;;;;;;1.79;100.00;102637.28;5069324;28;20436;-63
2023/03/02 00:56:07;;;;;;;70.05;34.42;;;;;;;1.79;100.00;102642.47;5069185;28;20047;-63
2023/03/02 00:58:32;;;;;;;76.30;36.10;;;;;;;1.63;100.00;102627.28;5069077;28;20464;-62
2023/03/02 01:00:58;;;;;;;77.38;37.55;;;;;;;1.71;100.00;102627.53;5069338;28;20036;-61
2023/03/02 01:03:24;;;;;;;74.88;36.78;;;;;;;1.73;100.00;102628.47;5069186;28;20103;-63
2023/03/02 01:05:54;;;;;;;72.43;36.05;;;;;;;1.70;100.00;102633.56;4991954;28;20544;-62
2023/03/02 01:08:20;;;;;;;79.55;35.67;;;;;;;1.89;100.00;102634.13;4950991;28;20402;-63
2023/03/02 01:10:45;;;;;;;74.95;35.10;;;;;;;1.82;100.00;102632.19;4949923;28;20035;-63
2023/03/02 01:13:10;;;;;;;80.10;36.25;;;;;;;1.77;100.00;102629.44;4967441;28;20026;-63
2023/03/02 01:15:36;;;;;;;72.88;35.05;;;;;;;1.72;100.00;102631.88;4967603;28;20449;-63
2023/03/02 01:18:01;;;;;;;72.05;34.78;;;;;;;1.77;100.00;102634.63;4967579;28;20380;-63
2023/03/02 01:20:27;;;;;;;75.65;35.88;;;;;;;1.71;100.00;102644.84;4950217;28;20114;-62
2023/03/02 01:22:52;;;;;;;77.53;37.70;;;;;;;1.61;100.00;102641.06;4950203;28;20030;-64
2023/03/02 01:25:18;;;;;;;77.13;35.55;;;;;;;1.50;100.00;102651.09;4960490;28;20032;-62
2023/03/02 01:27:43;;;;;;;84.47;37.00;;;;;;;1.66;100.00;102647.31;4947770;28;20081;-59
2023/03/02 01:30:09;;;;;;;81.45;37.30;;;;;;;1.59;100.00;102637.53;4947525;28;20073;-61
2023/03/02 01:32:35;;;;;;;81.40;36.08;;;;;;;1.67;100.00;102648.16;4948197;28;20027;-62
2023/03/02 01:35:00;;;;;;;86.93;37.75;;;;;;;1.62;100.00;102643.72;4952060;28;20099;-61
2023/03/02 01:37:26;;;;;;;85.20;37.25;;;;;;;1.63;100.00;102642.88;5068251;28;20417;-62
2023/03/02 01:39:51;;;;;;;78.88;35.90;;;;;;;1.64;100.00;102642.06;5067859;28;20036;-62
2023/03/02 01:42:17;;;;;;;85.68;35.55;;;;;;;1.55;100.00;102640.84;5068222;28;20052;-62
2023/03/02 01:44:46;;;;;;;78.80;35.45;;;;;;;1.70;100.00;102641.38;5050432;28;20083;-62
2023/03/02 01:47:32;;;;;;;80.63;36.20;;;;;;;1.47;100.00;102641.50;5068252;28;20502;-63
2023/03/02 01:50:02;;;;;;;77.53;34.75;;;;;;;1.49;100.00;102641.53;5050519;28;20525;-64
2023/03/02 01:52:30;;;;;;;78.53;34.30;;;;;;;1.57;100.00;102634.00;5067695;28;20035;-62
2023/03/02 01:54:57;;;;;;;77.53;35.08;;;;;;;1.43;100.00;102630.94;5032819;28;20085;-62
2023/03/02 01:57:28;;;;;;;80.43;33.60;;;;;;;1.40;100.00;102629.13;5050374;28;20411;-62
2023/03/02 01:59:58;;;;;;;80.13;34.47;;;;;;;1.44;100.00;102627.53;5050313;28;20047;-62
2023/03/02 02:02:24;;;;;;;87.93;35.55;;;;;;;1.47;100.00;102620.72;5067842;28;20024;-61
2023/03/02 02:04:50;;;;;;;77.55;33.05;;;;;;;1.54;100.00;102620.91;5068142;28;20027;-62
2023/03/02 02:07:15;;;;;;;87.05;34.50;;;;;;;1.55;100.00;102617.47;5029014;28;20027;-62
2023/03/02 02:09:49;;;;;;;78.95;35.28;;;;;;;1.47;100.00;102619.81;4966504;28;20118;-62
2023/03/02 02:12:16;;;;;;;85.72;34.50;;;;;;;1.38;100.00;102618.69;4949441;28;20022;-62
2023/03/02 02:14:42;;;;;;;75.82;34.55;;;;;;;1.55;100.00;102617.47;4966306;28;20101;-60
2023/03/02 02:17:08;;;;;;;85.35;35.03;;;;;;;1.51;100.00;102616.50;4967148;28;20034;-61
2023/03/02 02:19:40;;;;;;;80.28;33.50;;;;;;;1.43;100.00;102613.66;4969170;28;20128;-63
2023/03/02 02:22:05;;;;;;;82.72;33.63;;;;;;;1.44;100.00;102614.53;4970382;28;20019;-63
2023/03/02 02:24:43;;;;;;;81.45;34.25;;;;;;;1.44;100.00;102610.22;4952646;28;20092;-63
2023/03/02 02:27:09;;;;;;;88.30;34.80;;;;;;;1.33;100.00;102606.38;4969864;28;20023;-63
2023/03/02 02:29:37;;;;;;;83.55;34.53;;;;;;;1.31;100.00;102597.66;4970539;28;20027;-62
2023/03/02 02:32:12;;;;;;;88.33;34.63;;;;;;;1.30;100.00;102603.69;4952871;28;20513;-62
2023/03/02 02:34:39;;;;;;;81.95;34.20;;;;;;;1.20;100.00;102600.78;4970724;28;20471;-62
2023/03/02 02:37:20;;;;;;;99.88;35.22;;;;;;;1.27;100.00;102601.88;4970081;28;20030;-63
2023/03/02 02:39:47;;;;;;;85.97;34.10;;;;;;;1.24;100.00;102594.84;4952011;28;20652;-62
2023/03/02 02:42:19;;;;;;;88.07;36.22;;;;;;;1.26;100.00;102600.09;4969619;28;20023;-61
2023/03/02 02:44:45;;;;;;;90.80;36.67;;;;;;;1.36;100.00;102589.16;4952624;28;20083;-61
2023/03/02 02:47:18;;;;;;;97.05;35.78;;;;;;;1.16;100.00;102596.31;4970068;28;20527;-62
2023/03/02 02:49:44;;;;;;;90.88;36.47;;;;;;;1.24;100.00;102588.78;4952669;28;20383;-64
2023/03/02 02:52:14;;;;;;;90.45;35.10;;;;;;;1.41;100.00;102573.75;4952488;28;20023;-63
2023/03/02 02:54:41;;;;;;;97.70;36.38;;;;;;;1.40;100.00;102584.97;4968995;28;20027;-61
2023/03/02 02:57:06;;;;;;;94.57;35.22;;;;;;;1.35;100.00;102578.72;4952729;28;20027;-60
2023/03/02 02:59:38;;;;;;;87.43;34.92;;;;;;;1.33;100.00;102583.00;4952098;28;20092;-60
2023/03/02 03:02:04;;;;;;;88.82;35.58;;;;;;;1.34;100.00;102579.56;4953161;28;20080;-61
2023/03/02 03:04:30;;;;;;;81.63;32.20;;;;;;;1.28;100.00;102574.16;4969266;28;20433;-63
2023/03/02 03:07:03;;;;;;;96.18;35.20;;;;;;;1.36;100.00;102580.50;4969583;28;20141;-63
2023/03/02 03:09:29;;;;;;;88.57;35.70;;;;;;;1.30;100.00;102577.72;4969204;28;20039;-63
2023/03/02 03:11:57;;;;;;;100.70;36.78;;;;;;;1.33;100.00;102575.22;4968462;28;20427;-62
2023/03/02 03:14:33;;;;;;;91.50;35.35;;;;;;;1.35;100.00;102577.03;4951638;28;20067;-62
2023/03/02 03:16:59;;;;;;;85.13;34.53;;;;;;;1.40;100.00;102569.38;4951909;28;20092;-62
2023/03/02 03:19:31;;;;;;;96.30;36.42;;;;;;;1.27;100.00;102575.91;4968925;28;20062;-61
2023/03/02 03:21:58;;;;;;;89.80;35.58;;;;;;;1.25;100.00;102568.06;4969498;28;20041;-63
2023/03/02 03:24:25;;;;;;;78.10;35.08;;;;;;;1.26;100.00;102564.63;4969309;28;20429;-63
2023/03/02 03:26:53;;;;;;;84.85;34.70;;;;;;;1.39;100.00;102565.03;4968518;28;20463;-63
2023/03/02 03:29:22;;;;;;;87.25;35.45;;;;;;;1.34;100.00;102563.97;4968861;28;20383;-65
2023/03/02 03:31:51;;;;;;;86.18;34.83;;;;;;;1.22;100.00;102560.16;4969172;28;20140;-61
2023/03/02 03:34:16;;;;;;;86.63;33.72;;;;;;;1.28;100.00;102566.38;4951375;28;20474;-61
2023/03/02 03:36:42;;;;;;;80.15;33.53;;;;;;;1.31;100.00;102566.47;4968990;28;20034;-63
2023/03/02 03:39:09;;;;;;;80.60;33.15;;;;;;;1.26;100.00;102569.81;4969257;28;20426;-61
2023/03/02 03:41:34;;;;;;;81.78;33.38;;;;;;;1.19;100.00;102567.84;4967470;28;20024;-61
2023/03/02 03:44:00;;;;;;;84.95;34.60;;;;;;;1.17;100.00;102568.63;5070589;28;20055;-61
2023/03/02 03:46:25;;;;;;;89.55;33.13;;;;;;;1.20;100.00;102569.59;5069915;28;20024;-61
2023/03/02 03:48:50;;;;;;;85.82;33.92;;;;;;;1.24;100.00;102576.66;4991885;28;20379;-59
2023/03/02 03:51:16;;;;;;;80.38;33.60;;;;;;;1.25;100.00;102565.47;4968665;28;20034;-61
2023/03/02 03:53:42;;;;;;;84.15;34.42;;;;;;;1.28;100.00;102572.47;4968895;28;20027;-61
2023/03/02 03:56:07;;;;;;;80.93;33.30;;;;;;;1.22;100.00;102580.03;4951232;28;20027;-61
2023/03/02 03:58:32;;;;;;;87.80;33.55;;;;;;;1.15;100.00;102570.28;5047746;28;20146;-62
2023/03/02 04:00:58;;;;;;;96.68;34.10;;;;;;;1.24;100.00;102566.28;4991666;28;20030;-66
2023/03/02 04:03:24;;;;;;;89.18;33.72;;;;;;;1.15;100.00;102571.19;4987918;28;20026;-63
2023/03/02 04:05:50;;;;;;;94.38;33.55;;;;;;;1.07;100.00;102572.63;4988156;28;20022;-62
2023/03/02 04:08:15;;;;;;;85.60;33.20;;;;;;;1.12;100.00;102573.69;4988008;28;20077;-64
2023/03/02 04:10:41;;;;;;;81.00;33.47;;;;;;;1.07;100.00;102577.81;4987287;28;20070;-66
2023/03/02 04:13:06;;;;;;;90.45;34.75;;;;;;;1.14;100.00;102577.19;4988553;28;20029;-61
2023/03/02 04:15:31;;;;;;;82.50;33.47;;;;;;;1.08;100.00;102580.47;4988013;28;20056;-62
2023/03/02 04:17:57;;;;;;;83.32;33.50;;;;;;;1.07;100.00;102583.00;4988085;28;20064;-63
2023/03/02 04:20:25;;;;;;;82.50;33.03;;;;;;;1.03;100.00;102584.63;4987803;28;20373;-62
2023/03/02 04:22:52;;;;;;;87.13;31.65;;;;;;;1.12;100.00;102578.88;4988157;28;20027;-64
2023/03/02 04:25:22;;;;;;;86.93;33.67;;;;;;;1.06;100.00;102581.25;4987187;28;20494;-62
2023/03/02 04:27:47;;;;;;;;;;;;;;;1.05;100.00;102584.69;4993224;28;20037;-62
2023/03/02 04:30:14;;;;;;;79.82;31.00;;;;;;;0.96;100.00;102583.53;5069781;28;19913;-63
2023/03/02 04:32:40;;;;;;;77.10;30.67;;;;;;;1.07;100.00;102588.19;5069857;28;20028;-62
2023/03/02 04:35:05;;;;;;;83.10;32.03;;;;;;;0.99;100.00;102586.22;5069933;28;20099;-63
2023/03/02 04:37:31;;;;;;;83.82;33.50;;;;;;;0.96;100.00;102580.06;5069483;28;20033;-63
2023/03/02 04:39:56;;;;;;;84.70;32.30;;;;;;;1.03;100.00;102582.03;5068567;28;20119;-61
2023/03/02 04:42:22;;;;;;;81.47;32.75;;;;;;;1.03;100.00;102583.75;5068781;28;20055;-62
2023/03/02 04:44:47;;;;;;;80.82;30.55;;;;;;;0.96;100.00;102580.06;5069751;28;20101;-62
2023/03/02 04:47:13;;;;;;;84.45;32.58;;;;;;;0.90;100.00;102578.13;5068997;28;20067;-63
2023/03/02 04:49:39;;;;;;;78.65;31.98;;;;;;;0.86;100.00;102579.75;5069351;28;20037;-62
2023/03/02 04:52:04;;;;;;;77.22;30.80;;;;;;;0.82;100.00;102572.69;5069530;28;20024;-62
2023/03/02 04:54:30;;;;;;;77.82;31.90;;;;;;;0.63;100.00;102587.59;5068388;28;20443;-63
2023/03/02 04:56:55;;;;;;;82.70;32.97;;;;;;;0.70;100.00;102578.34;5069225;28;20057;-63
2023/03/02 04:59:24;;;;;;;80.20;28.90;;;;;;;0.56;100.00;102579.53;5029087;28;20027;-63
2023/03/02 05:01:50;;;;;;;77.30;30.77;;;;;;;0.53;100.00;102584.59;4947476;29;20023;-63
2023/03/02 05:04:16;;;;;;;93.07;33.75;;;;;;;0.64;100.00;102575.50;4947880;28;20046;-61
2023/03/02 05:06:41;;;;;;;86.90;31.88;;;;;;;0.63;100.00;102571.13;4948596;29;20030;-63
2023/03/02 05:09:07;;;;;;;76.30;30.85;;;;;;;0.59;100.00;102572.75;4948339;28;20581;-62
2023/03/02 05:11:32;;;;;;;82.95;31.13;;;;;;;0.52;100.00;102573.38;4947450;28;20691;-63
2023/03/02 05:14:00;;;;;;;78.25;30.98;;;;;;;0.43;100.00;102581.69;4948467;29;20027;-63
2023/03/02 05:16:27;;;;;;;86.55;31.60;;;;;;;0.42;100.00;102576.44;4947759;28;20054;-64
2023/03/02 05:18:53;;;;;;;83.15;31.00;;;;;;;0.39;100.00;102571.16;4949716;28;20391;-62
2023/03/02 05:21:19;;;;;;;89.20;32.65;;;;;;;0.37;100.00;102573.69;4966072;28;20027;-61
2023/03/02 05:23:45;;;;;;;80.88;32.45;;;;;;;0.46;100.00;102575.72;4966808;28;20512;-63
2023/03/02 05:26:10;;;;;;;80.47;31.88;;;;;;;0.50;100.00;102575.00;4966480;28;20025;-63
2023/03/02 05:28:36;;;;;;;80.28;31.15;;;;;;;0.38;100.00;102572.84;4967656;28;20089;-63
2023/03/02 05:31:02;;;;;;;76.00;30.40;;;;;;;0.36;100.00;102571.94;4967281;28;20521;-62
2023/03/02 05:33:28;;;;;;;73.05;30.33;;;;;;;0.39;100.00;102576.34;4966603;28;20026;-62
2023/03/02 05:35:54;;;;;;;76.85;31.15;;;;;;;0.33;100.00;102567.50;4966883;28;20110;-62
2023/03/02 05:38:19;;;;;;;74.88;29.70;;;;;;;0.27;100.00;102571.59;4966576;28;20114;-63
2023/03/02 05:40:46;;;;;;;81.78;30.38;;;;;;;0.33;100.00;102566.63;4948768;28;20031;-63
2023/03/02 05:43:15;;;;;;;67.07;27.67;;;;;;;0.40;100.00;102575.50;4930154;29;20027;-62
2023/03/02 05:45:40;;;;;;;;;;;;;;;0.44;100.00;102570.50;4948049;28;20080;-60
2023/03/02 05:48:06;;;;;;;80.53;28.92;;;;;;;0.28;100.00;102582.00;4947364;28;19923;-63
2023/03/02 05:50:32;;;;;;;70.25;28.40;;;;;;;0.40;100.00;102578.09;4945982;28;20027;-62
2023/03/02 05:52:58;;;;;;;65.45;27.17;;;;;;;0.42;100.00;102576.44;4946435;28;20031;-60
2023/03/02 05:55:24;;;;;;;75.20;29.63;;;;;;;0.29;100.00;102570.81;4965770;28;20041;-63
2023/03/02 05:57:50;;;;;;;71.85;28.90;;;;;;;0.35;100.00;102570.13;4966443;28;20364;-60
2023/03/02 06:00:16;;;;;;;69.40;30.20;;;;;;;0.47;100.00;102577.47;4952901;28;20028;-62
2023/03/02 06:02:42;;;;;;;67.25;28.83;;;;;;;0.42;100.00;102577.31;4946720;28;20089;-62
2023/03/02 06:05:10;;;;;;;66.22;27.95;;;;;;;0.32;100.00;102577.81;4958675;28;20483;-61
2023/03/02 06:07:35;;;;;;;66.30;28.08;;;;;;;0.36;100.00;102584.91;4967027;28;20023;-61
2023/03/02 06:10:01;;;;;;;70.10;29.42;;;;;;;0.40;100.00;102584.19;4966125;28;20088;-61
2023/03/02 06:12:26;;;;;;;76.15;30.30;;;;;;;0.41;100.00;102592.81;4969706;28;20039;-62
2023/03/02 06:14:52;;;;;;;74.90;28.08;;;;;;;0.43;100.00;102593.78;4965487;28;20042;-61
2023/03/02 06:17:17;;;;;;;79.57;28.80;;;;;;;0.32;100.00;102595.97;4963843;28;20542;-62
2023/03/02 06:19:42;;;;;;;73.22;29.33;;;;;;;0.40;100.00;102598.84;4965828;28;20027;-61
2023/03/02 06:22:08;;;;;;;62.58;27.20;;;;;;;0.38;100.00;102606.56;4966000;28;20060;-61
2023/03/02 06:24:33;;;;;;;70.78;29.15;;;;;;;0.47;100.00;102601.72;4964938;28;20097;-61
2023/03/02 06:26:59;;;;;;;65.25;26.90;;;;;;;0.46;100.00;102605.16;4965533;28;20030;-64
2023/03/02 06:29:24;;;;;;;69.68;28.63;;;;;;;0.37;100.00;102602.22;4947102;28;20498;-62
2023/03/02 06:31:49;;;;;;;72.38;28.25;;;;;;;0.42;100.00;102602.38;4965593;28;20117;-63
2023/03/02 06:34:15;;;;;;;72.00;29.05;;;;;;;0.48;100.00;102606.06;4964386;28;20126;-61
2023/03/02 06:36:40;;;;;;;69.85;28.45;;;;;;;0.36;100.00;102614.28;4963020;28;20031;-62
2023/03/02 06:39:07;;;;;;;69.32;27.48;;;;;;;0.43;100.00;102605.03;4959202;28;20023;-61
2023/03/02 06:41:33;;;;;;;70.55;28.63;;;;;;;0.41;100.00;102616.16;4962550;28;20069;-60
2023/03/02 06:43:59;;;;;;;71.65;27.42;;;;;;;0.39;100.00;102616.09;4964769;28;20463;-62
2023/03/02 06:46:24;;;;;;;75.70;27.38;;;;;;;0.52;100.00;102614.88;4961780;28;20123;-61
2023/03/02 06:48:50;;;;;;;68.47;27.52;;;;;;;0.55;100.00;102609.78;4965151;28;20456;-60
2023/03/02 06:51:16;;;;;;;76.10;29.08;;;;;;;0.59;100.00;102615.97;4965230;28;20031;-62
2023/03/02 06:53:42;;;;;;;70.88;28.63;;;;;;;0.49;100.00;102618.22;4964509;28;20200;-61
2023/03/02 06:56:07;;;;;;;66.38;26.92;;;;;;;0.45;100.00;102621.53;4947412;28;20042;-61
2023/03/02 06:58:32;;;;;;;74.93;28.95;;;;;;;0.43;100.00;102617.13;4964797;28;20062;-65
2023/03/02 07:00:58;;;;;;;73.13;28.85;;;;;;;0.44;100.00;102614.56;4964763;28;20047;-64
2023/03/02 07:03:23;;;;;;;69.90;28.73;;;;;;;0.52;100.00;102611.38;4964857;28;20030;-66
2023/03/02 07:05:50;;;;;;;72.70;29.25;;;;;;;0.58;100.00;102614.19;4948922;28;20026;-64
2023/03/02 07:08:15;;;;;;;68.07;26.92;;;;;;;0.71;100.00;102621.59;4966841;28;20090;-64
2023/03/02 07:10:41;;;;;;;71.68;27.52;;;;;;;0.70;100.00;102617.25;4966892;28;20589;-62
2023/03/02 07:13:06;;;;;;;76.10;29.73;;;;;;;0.71;100.00;102612.94;4966279;28;20439;-63
2023/03/02 07:15:31;;;;;;;70.45;27.88;;;;;;;0.79;100.00;102615.81;4959410;28;20447;-63
2023/03/02 07:17:57;;;;;;;68.57;27.33;;;;;;;0.73;100.00;102619.06;4963023;28;20386;-63
2023/03/02 07:20:22;;;;;;;77.75;28.70;;;;;;;0.73;100.00;102613.88;4968350;28;20023;-59
2023/03/02 07:22:48;;;;;;;71.25;28.75;;;;;;;0.71;100.00;102616.41;4968579;28;20027;-60
2023/03/02 07:25:13;;;;;;;84.85;30.67;;;;;;;0.70;100.00;102625.03;4966780;28;20110;-62
2023/03/02 07:27:39;;;;;;;76.85;30.20;;;;;;;0.74;100.00;102624.31;4966685;28;20522;-61
2023/03/02 07:30:05;;;;;;;80.93;32.53;;;;;;;0.79;100.00;102623.59;4949574;28;20031;-61
2023/03/02 07:32:30;;;;;;;72.75;29.70;;;;;;;0.77;100.00;102620.94;4966804;28;20074;-61
2023/03/02 07:34:56;;;;;;;78.63;30.65;;;;;;;0.91;100.00;102621.44;4950906;28;20122;-62
2023/03/02 07:37:21;;;;;;;71.78;30.00;;;;;;;1.05;100.00;102618.44;4967142;28;20045;-60
2023/03/02 07:39:48;;;;;;;78.50;31.48;;;;;;;0.96;100.00;102619.88;4963503;28;20088;-63
2023/03/02 07:42:14;;;;;;;74.25;30.48;;;;;;;0.94;100.00;102626.75;4967153;28;20090;-61
2023/03/02 07:44:39;;;;;;;70.78;28.92;;;;;;;1.12;100.00;102616.09;4966504;28;20026;-62
2023/03/02 07:47:05;;;;;;;82.72;31.40;;;;;;;1.06;100.00;102609.81;4950502;28;20084;-62
2023/03/02 07:49:30;;;;;;;70.03;29.75;;;;;;;1.19;100.00;102616.31;4953648;28;20096;-61
2023/03/02 07:51:55;;;;;;;73.20;29.35;;;;;;;1.32;100.00;102617.63;4967854;28;20067;-61
2023/03/02 07:54:21;;;;;;;74.60;31.05;;;;;;;1.33;100.00;102617.66;4967003;28;20066;-60
2023/03/02 07:56:46;;;;;;;72.78;30.15;;;;;;;1.28;100.00;102619.22;4967026;28;20113;-60
2023/03/02 07:59:12;;;;;;;69.65;30.48;;;;;;;1.34;100.00;102611.63;4967683;28;20034;-61
2023/03/02 08:01:38;;;;;;;73.88;30.88;;;;;;;1.53;100.00;102608.75;4967046;28;20031;-61
2023/03/02 08:04:04;;;;;;;79.28;32.38;;;;;;;1.53;100.00;102616.56;4968103;28;20489;-62
2023/03/02 08:06:29;;;;;;;84.75;33.38;;;;;;;1.60;100.00;102616.78;4967609;28;20043;-62
2023/03/02 08:08:55;;;;;;;82.13;33.95;;;;;;;1.54;100.00;102614.00;4965933;28;20096;-61
2023/03/02 08:11:20;;;;;;;78.97;34.47;;;;;;;1.47;100.00;102622.41;4949581;28;20548;-61
2023/03/02 08:13:46;;;;;;;79.68;33.75;;;;;;;1.65;100.00;102619.53;4966416;28;20057;-61
2023/03/02 08:16:13;;;;;;;81.47;33.10;;;;;;;1.81;100.00;102620.03;4962717;28;20081;-65
2023/03/02 08:18:39;;;;;;;75.18;33.20;;;;;;;1.60;100.00;102615.91;4948927;28;20023;-62
2023/03/02 08:21:17;;;;;;;71.40;32.28;;;;;;;1.91;100.00;102610.78;4947985;28;20049;-62
2023/03/02 08:23:42;;;;;;;65.55;28.80;;;;;;;1.89;100.00;102616.84;4947680;28;20102;-60
2023/03/02 08:26:08;;;;;;;58.10;27.73;;;;;;;2.04;100.00;102614.66;4948624;29;20560;-62
2023/03/02 08:28:33;;;;;;;56.03;26.23;;;;;;;1.98;100.00;102613.63;4958406;28;20046;-62
2023/03/02 08:31:00;;;;;;;57.53;26.20;;;;;;;1.89;100.00;102610.75;4949012;28;20034;-62
2023/03/02 08:33:27;;;;;;;55.17;25.90;;;;;;;1.88;100.00;102615.06;4966446;28;20027;-60
2023/03/02 08:36:00;;;;;;;50.95;25.48;;;;;;;2.02;100.00;102615.50;4950487;28;20019;-62
2023/03/02 08:38:27;;;;;;;54.80;24.88;;;;;;;2.07;100.00;102606.94;4966311;28;20027;-62
2023/03/02 08:40:52;;;;;;;50.65;23.50;;;;;;;2.11;100.00;102603.63;5033424;28;20076;-65
2023/03/02 08:43:19;;;;;;;49.60;22.65;;;;;;;2.18;100.00;102604.66;4966834;28;20034;-61
2023/03/02 08:45:45;;;;;;;43.63;21.98;;;;;;;2.26;100.00;102604.06;4966485;28;20027;-62
2023/03/02 08:48:10;;;;;;;48.55;23.83;;;;;;;2.26;100.00;102608.41;4966059;28;20034;-59
2023/03/02 08:50:35;;;;;;;42.88;22.20;;;;;;;2.27;100.00;102604.94;4966518;28;20023;-62
2023/03/02 08:53:01;;;;;;;47.22;22.05;;;;;;;2.45;100.00;102601.09;4966436;28;20022;-62
2023/03/02 08:55:26;;;;;;;42.75;21.13;;;;;;;2.44;100.00;102604.56;4966380;28;20169;-61
2023/03/02 08:57:53;;;;;;;46.45;21.05;;;;;;;2.58;100.00;102611.03;4967073;28;20466;-64
2023/03/02 09:00:19;;;;;;;40.20;20.65;;;;;;;2.42;100.00;102601.91;4965414;28;20035;-62
2023/03/02 09:02:44;;;;;;;40.80;22.08;;;;;;;2.40;100.00;102611.38;4965328;28;20379;-61
2023/03/02 09:05:11;;;;;;;38.75;19.15;;;;;;;2.61;100.00;102602.41;4964912;28;20109;-64
2023/03/02 09:07:36;;;;;;;37.22;19.25;;;;;;;2.71;100.00;102609.63;4965581;28;20811;-61
2023/03/02 09:10:01;;;;;;;38.25;18.90;;;;;;;2.83;100.00;102598.66;4965868;28;20042;-63
2023/03/02 09:12:27;;;;;;;37.58;19.65;;;;;;;3.15;100.00;102601.25;4965541;28;20035;-63
2023/03/02 09:14:52;;;;;;;40.75;20.55;;;;;;;2.88;100.00;102594.50;4965756;28;20082;-61
2023/03/02 09:17:17;;;;;;;37.75;18.77;;;;;;;2.83;100.00;102590.00;4964957;28;20050;-62
2023/03/02 09:19:43;;;;;;;33.00;18.30;;;;;;;3.21;100.00;102602.25;4952801;28;20035;-60
2023/03/02 09:22:08;;;;;;;36.25;18.20;;;;;;;3.22;100.00;102598.81;4964048;28;20035;-61
2023/03/02 09:24:34;;;;;;;37.05;17.63;;;;;;;3.25;100.00;102594.53;4962862;28;20026;-61
2023/03/02 09:27:00;;;;;;;33.05;16.83;;;;;;;3.30;100.00;102592.06;4965280;28;20386;-60
2023/03/02 09:29:26;;;;;;;34.85;17.75;;;;;;;3.22;100.00;102597.06;4964993;28;20022;-61
2023/03/02 09:31:51;;;;;;;32.83;16.48;;;;;;;2.93;100.00;102593.72;4947733;28;20110;-63
2023/03/02 09:34:16;;;;;;;27.73;15.10;;;;;;;3.31;100.00;102600.78;4965228;28;20053;-63
2023/03/02 09:36:42;;;;;;;29.75;16.20;;;;;;;3.65;100.00;102601.59;4965522;28;20088;-63
2023/03/02 09:39:11;;;;;;;33.05;16.60;;;;;;;3.52;100.00;102598.69;4963582;28;20073;-61
2023/03/02 09:42:01;;;;;;;31.70;16.13;;;;;;;3.55;100.00;102603.06;4952960;28;20024;-63
2023/03/02 09:45:01;;;;;;;31.65;15.50;;;;;;;3.28;100.00;102598.94;4936513;28;20081;-62
2023/03/02 09:47:32;;;;;;;27.85;15.57;;;;;;;3.35;100.00;102600.00;4958462;28;20042;-61
2023/03/02 09:50:24;;;;;;;27.00;14.80;;;;;;;3.65;100.00;102594.63;4945238;28;20502;-62
2023/03/02 09:53:02;;;;;;;29.10;15.88;;;;;;;3.89;100.00;102598.63;4941607;28;20438;-61
2023/03/02 09:55:31;;;;;;;28.13;14.88;;;;;;;3.94;100.00;102600.50;4938624;28;20748;-61
2023/03/02 09:58:01;;;;;;;33.50;16.02;;;;;;;3.92;100.00;102597.84;4951989;28;20030;-63
2023/03/02 10:00:29;;;;;;;;;;;;;;;4.32;100.00;102602.16;4946570;28;20091;-61
2023/03/02 10:02:59;;;;;;;29.33;14.60;;;;;;;4.19;100.00;102604.53;4945565;28;19918;-62
2023/03/02 10:05:29;;;;;;;;;;;;;;;4.48;100.00;102593.78;4933237;28;20050;-61
2023/03/02 10:07:55;;;;;;;27.85;15.13;;;;;;;4.43;100.00;102592.81;4944796;28;19940;-64
2023/03/02 10:10:44;;;;;;;25.55;14.18;;;;;;;4.11;100.00;102598.25;4958391;28;20491;-62
2023/03/02 10:13:22;;;;;;;;;;;;;;;3.71;100.00;102593.91;4949796;28;20031;-62
2023/03/02 10:15:57;;;;;;;25.77;13.90;;;;;;;3.66;100.00;102592.91;4935659;28;19918;-64
2023/03/02 10:18:37;;;;;;;25.58;14.30;;;;;;;3.98;100.00;102587.56;4964448;28;20057;-58
2023/03/02 10:21:11;;;;;;;25.52;14.48;;;;;;;4.37;100.00;102590.94;4946782;28;20023;-63
2023/03/02 10:23:37;;;;;;;29.27;14.35;;;;;;;4.13;100.00;102588.72;4947595;28;20202;-62
2023/03/02 10:26:11;;;;;;;27.92;15.32;;;;;;;4.44;100.00;102597.19;4966392;28;20489;-62
2023/03/02 10:28:45;;;;;;;24.02;14.02;;;;;;;4.33;100.00;102589.13;4965581;28;20220;-61
2023/03/02 10:31:28;;;;;;;27.48;15.45;;;;;;;3.95;100.00;102590.09;4946514;28;20184;-61
2023/03/02 10:33:54;;;;;;;24.98;14.25;;;;;;;4.07;100.00;102592.09;4963300;28;20054;-61
2023/03/02 10:36:28;;;;;;;28.10;13.63;;;;;;;4.32;100.00;102586.50;4964899;28;20023;-61
2023/03/02 10:38:55;;;;;;;30.00;15.40;;;;;;;4.88;100.00;102582.34;4963895;28;20035;-62
2023/03/02 10:41:33;;;;;;;27.52;14.63;;;;;;;4.93;100.00;102576.34;4968485;28;20588;-62
2023/03/02 10:44:02;;;;;;;26.20;14.85;;;;;;;4.90;100.00;102575.41;4951166;28;20333;-61
2023/03/02 10:46:39;;;;;;;25.27;14.30;;;;;;;5.05;100.00;102578.28;4967924;28;20085;-61
2023/03/02 10:49:38;;;;;;;23.38;13.65;;;;;;;5.24;100.00;102575.13;4967974;28;20057;-61
2023/03/02 10:52:12;;;;;;;24.23;14.00;;;;;;;5.02;100.00;102567.78;4948944;28;20043;-61
2023/03/02 10:54:38;;;;;;;26.65;14.30;;;;;;;5.16;100.00;102569.75;4947695;28;20275;-63
2023/03/02 10:57:19;;;;;;;24.17;13.45;;;;;;;5.36;100.00;102572.69;4948747;28;20467;-62
2023/03/02 10:59:46;;;;;;;27.27;14.20;;;;;;;5.51;100.00;102579.88;4930288;28;20356;-61
2023/03/02 11:02:21;;;;;;;21.48;12.80;;;;;;;5.33;100.00;102571.78;4948905;28;20061;-60
2023/03/02 11:04:53;;;;;;;25.75;13.95;;;;;;;5.45;100.00;102556.28;4964434;28;20031;-63
2023/03/02 11:07:21;;;;;;;28.45;13.45;;;;;;;5.66;100.00;102576.63;4969090;28;20023;-62
2023/03/02 11:10:00;;;;;;;25.42;13.43;;;;;;;5.86;100.00;102567.31;4967558;28;20031;-63
2023/03/02 11:12:26;;;;;;;21.75;12.75;;;;;;;6.11;100.00;102565.94;4969271;28;20035;-63